sensor_id;sensor_type;location;lat;lon;timestamp;P1;durP1;ratioP1;P2;durP2;ratioP2
38843;SDS011;24596;48.080;8.362;2023-03-01T00:02:02;28.45;;;14.32;;
38843;SDS011;24596;48.080;8.362;2023-03-01T00:04:27;27.95;;;14.48;;
38843;SDS011;24596;48.080;8.362;2023-03-01T00:06:52;30.35;;;14.88;;
38843;SDS011;24596;48.080;8.362;2023-03-01T00:09:18;28.95;;;14.88;;
38843;SDS011;24596;48.080;8.362;2023-03-01T00:11:43;32.25;;;16.77;;
38843;SDS011;24596;48.080;8.362;2023-03-01T00:14:08;38.08;;;16.88;;
38843;SDS011;24596;48.080;8.362;2023-03-01T00:16:37;35.10;;;17.13;;
38843;SDS011;24596;48.080;8.362;2023-03-01T00:19:04;35.67;;;17.15;;
38843;SDS011;24596;48.080;8.362;2023-03-01T00:21:30;36.13;;;16.95;;
38843;SDS011;24596;48.080;8.362;2023-03-01T00:23:55;34.17;;;16.23;;
38843;SDS011;24596;48.080;8.362;2023-03-01T00:26:21;36.38;;;17.60;;
38843;SDS011;24596;48.080;8.362;2023-03-01T00:28:46;33.15;;;15.80;;
38843;SDS011;24596;48.080;8.362;2023-03-01T00:31:13;31.88;;;16.35;;
38843;SDS011;24596;48.080;8.362;2023-03-01T00:33:39;29.67;;;15.52;;
38843;SDS011;24596;48.080;8.362;2023-03-01T00:36:04;35.33;;;17.80;;
38843;SDS011;24596;48.080;8.362;2023-03-01T00:38:30;31.92;;;16.10;;
38843;SDS011;24596;48.080;8.362;2023-03-01T00:40:55;34.53;;;16.63;;
38843;SDS011;24596;48.080;8.362;2023-03-01T00:43:20;29.92;;;15.95;;
38843;SDS011;24596;48.080;8.362;2023-03-01T00:45:45;31.40;;;16.02;;
38843;SDS011;24596;48.080;8.362;2023-03-01T00:48:11;29.95;;;16.23;;
38843;SDS011;24596;48.080;8.362;2023-03-01T00:50:36;27.80;;;15.45;;
38843;SDS011;24596;48.080;8.362;2023-03-01T00:53:01;33.15;;;17.42;;
38843;SDS011;24596;48.080;8.362;2023-03-01T00:55:26;30.85;;;15.85;;
38843;SDS011;24596;48.080;8.362;2023-03-01T00:57:51;28.13;;;16.17;;
38843;SDS011;24596;48.080;8.362;2023-03-01T01:00:17;27.40;;;15.35;;
38843;SDS011;24596;48.080;8.362;2023-03-01T01:02:43;33.33;;;16.80;;
38843;SDS011;24596;48.080;8.362;2023-03-01T01:05:08;33.28;;;16.33;;
38843;SDS011;24596;48.080;8.362;2023-03-01T01:07:33;35.00;;;16.90;;
38843;SDS011;24596;48.080;8.362;2023-03-01T01:09:59;33.78;;;15.60;;
38843;SDS011;24596;48.080;8.362;2023-03-01T01:12:24;26.05;;;14.63;;
38843;SDS011;24596;48.080;8.362;2023-03-01T01:14:49;30.48;;;15.77;;
38843;SDS011;24596;48.080;8.362;2023-03-01T01:17:14;29.48;;;15.63;;
38843;SDS011;24596;48.080;8.362;2023-03-01T01:19:40;31.27;;;15.27;;
38843;SDS011;24596;48.080;8.362;2023-03-01T01:22:05;35.72;;;16.45;;
38843;SDS011;24596;48.080;8.362;2023-03-01T01:24:30;33.75;;;16.63;;
38843;SDS011;24596;48.080;8.362;2023-03-01T01:26:55;32.28;;;16.73;;
38843;SDS011;24596;48.080;8.362;2023-03-01T01:29:21;30.00;;;15.55;;
38843;SDS011;24596;48.080;8.362;2023-03-01T01:31:46;36.05;;;17.17;;
38843;SDS011;24596;48.080;8.362;2023-03-01T01:34:15;35.42;;;16.95;;
38843;SDS011;24596;48.080;8.362;2023-03-01T01:36:41;37.88;;;16.77;;
38843;SDS011;24596;48.080;8.362;2023-03-01T01:39:06;31.40;;;15.50;;
38843;SDS011;24596;48.080;8.362;2023-03-01T01:41:32;30.67;;;16.45;;
38843;SDS011;24596;48.080;8.362;2023-03-01T01:46:41;29.83;;;16.00;;
38843;SDS011;24596;48.080;8.362;2023-03-01T01:49:51;34.80;;;16.60;;
38843;SDS011;24596;48.080;8.362;2023-03-01T01:52:38;29.95;;;15.73;;
38843;SDS011;24596;48.080;8.362;2023-03-01T01:57:12;32.25;;;16.85;;
38843;SDS011;24596;48.080;8.362;2023-03-01T01:59:39;30.75;;;15.60;;
38843;SDS011;24596;48.080;8.362;2023-03-01T02:02:06;35.30;;;15.75;;
38843;SDS011;24596;48.080;8.362;2023-03-01T02:04:32;33.83;;;16.67;;
38843;SDS011;24596;48.080;8.362;2023-03-01T02:09:28;34.38;;;16.70;;
38843;SDS011;24596;48.080;8.362;2023-03-01T02:11:55;31.92;;;16.83;;
38843;SDS011;24596;48.080;8.362;2023-03-01T02:14:20;36.67;;;17.55;;
38843;SDS011;24596;48.080;8.362;2023-03-01T02:16:46;29.40;;;16.23;;
38843;SDS011;24596;48.080;8.362;2023-03-01T02:19:24;31.08;;;16.30;;
38843;SDS011;24596;48.080;8.362;2023-03-01T02:26:48;35.17;;;18.17;;
38843;SDS011;24596;48.080;8.362;2023-03-01T02:29:15;36.88;;;17.67;;
38843;SDS011;24596;48.080;8.362;2023-03-01T02:31:40;34.70;;;16.77;;
38843;SDS011;24596;48.080;8.362;2023-03-01T02:34:13;37.75;;;18.15;;
38843;SDS011;24596;48.080;8.362;2023-03-01T02:36:40;31.75;;;16.67;;
38843;SDS011;24596;48.080;8.362;2023-03-01T02:39:07;33.67;;;16.83;;
38843;SDS011;24596;48.080;8.362;2023-03-01T02:41:39;34.03;;;16.88;;
38843;SDS011;24596;48.080;8.362;2023-03-01T02:44:06;32.85;;;16.63;;
38843;SDS011;24596;48.080;8.362;2023-03-01T02:46:31;36.65;;;17.63;;
38843;SDS011;24596;48.080;8.362;2023-03-01T02:48:57;38.25;;;18.60;;
38843;SDS011;24596;48.080;8.362;2023-03-01T02:56:32;35.00;;;17.45;;
38843;SDS011;24596;48.080;8.362;2023-03-01T02:58:57;33.75;;;17.13;;
38843;SDS011;24596;48.080;8.362;2023-03-01T03:01:26;35.58;;;17.42;;
38843;SDS011;24596;48.080;8.362;2023-03-01T03:04:02;37.15;;;18.85;;
38843;SDS011;24596;48.080;8.362;2023-03-01T03:06:28;35.63;;;19.33;;
38843;SDS011;24596;48.080;8.362;2023-03-01T03:08:54;37.50;;;19.35;;
38843;SDS011;24596;48.080;8.362;2023-03-01T03:11:19;35.15;;;17.48;;
38843;SDS011;24596;48.080;8.362;2023-03-01T03:13:45;35.20;;;17.75;;
38843;SDS011;24596;48.080;8.362;2023-03-01T03:16:12;35.20;;;18.63;;
38843;SDS011;24596;48.080;8.362;2023-03-01T03:18:38;35.63;;;18.33;;
38843;SDS011;24596;48.080;8.362;2023-03-01T03:21:03;37.75;;;19.05;;
38843;SDS011;24596;48.080;8.362;2023-03-01T03:23:32;33.17;;;17.90;;
38843;SDS011;24596;48.080;8.362;2023-03-01T03:25:57;38.30;;;19.38;;
38843;SDS011;24596;48.080;8.362;2023-03-01T03:28:22;34.72;;;17.98;;
38843;SDS011;24596;48.080;8.362;2023-03-01T03:30:47;35.33;;;17.60;;
38843;SDS011;24596;48.080;8.362;2023-03-01T03:33:13;32.30;;;17.60;;
38843;SDS011;24596;48.080;8.362;2023-03-01T03:35:46;34.00;;;18.35;;
38843;SDS011;24596;48.080;8.362;2023-03-01T03:38:12;36.65;;;18.85;;
38843;SDS011;24596;48.080;8.362;2023-03-01T03:40:45;35.70;;;18.58;;
38843;SDS011;24596;48.080;8.362;2023-03-01T03:43:15;36.53;;;18.67;;
38843;SDS011;24596;48.080;8.362;2023-03-01T03:45:41;33.10;;;17.20;;
38843;SDS011;24596;48.080;8.362;2023-03-01T03:48:07;35.45;;;18.40;;
38843;SDS011;24596;48.080;8.362;2023-03-01T03:50:34;33.92;;;18.67;;
38843;SDS011;24596;48.080;8.362;2023-03-01T03:53:00;38.25;;;19.33;;
38843;SDS011;24596;48.080;8.362;2023-03-01T03:55:25;32.03;;;17.17;;
38843;SDS011;24596;48.080;8.362;2023-03-01T03:57:55;35.28;;;18.30;;
38843;SDS011;24596;48.080;8.362;2023-03-01T04:00:21;39.08;;;18.10;;
38843;SDS011;24596;48.080;8.362;2023-03-01T04:02:48;35.10;;;19.30;;
38843;SDS011;24596;48.080;8.362;2023-03-01T04:05:15;40.30;;;19.08;;
38843;SDS011;24596;48.080;8.362;2023-03-01T04:07:40;36.25;;;19.08;;
38843;SDS011;24596;48.080;8.362;2023-03-01T04:10:07;33.60;;;18.52;;
38843;SDS011;24596;48.080;8.362;2023-03-01T04:12:33;38.20;;;19.20;;
38843;SDS011;24596;48.080;8.362;2023-03-01T04:15:02;46.00;;;19.98;;
38843;SDS011;24596;48.080;8.362;2023-03-01T04:17:37;39.58;;;18.80;;
38843;SDS011;24596;48.080;8.362;2023-03-01T04:20:04;35.03;;;18.20;;
38843;SDS011;24596;48.080;8.362;2023-03-01T04:22:30;38.50;;;19.33;;
38843;SDS011;24596;48.080;8.362;2023-03-01T04:24:56;44.00;;;20.15;;
38843;SDS011;24596;48.080;8.362;2023-03-01T04:27:22;37.47;;;20.13;;
38843;SDS011;24596;48.080;8.362;2023-03-01T04:29:47;39.45;;;20.17;;
38843;SDS011;24596;48.080;8.362;2023-03-01T04:32:12;38.75;;;19.60;;
38843;SDS011;24596;48.080;8.362;2023-03-01T04:34:41;36.65;;;18.77;;
38843;SDS011;24596;48.080;8.362;2023-03-01T04:37:06;34.88;;;17.15;;
38843;SDS011;24596;48.080;8.362;2023-03-01T04:39:31;36.90;;;18.65;;
38843;SDS011;24596;48.080;8.362;2023-03-01T04:41:57;35.72;;;19.20;;
38843;SDS011;24596;48.080;8.362;2023-03-01T04:44:22;38.63;;;19.52;;
38843;SDS011;24596;48.080;8.362;2023-03-01T04:46:48;36.13;;;19.02;;
38843;SDS011;24596;48.080;8.362;2023-03-01T04:49:14;37.38;;;18.95;;
38843;SDS011;24596;48.080;8.362;2023-03-01T04:51:40;39.22;;;20.98;;
38843;SDS011;24596;48.080;8.362;2023-03-01T04:54:06;45.83;;;18.85;;
38843;SDS011;24596;48.080;8.362;2023-03-01T04:56:33;35.80;;;19.35;;
38843;SDS011;24596;48.080;8.362;2023-03-01T04:58:58;37.47;;;20.17;;
38843;SDS011;24596;48.080;8.362;2023-03-01T05:01:25;37.80;;;20.02;;
38843;SDS011;24596;48.080;8.362;2023-03-01T05:03:51;35.53;;;19.17;;
38843;SDS011;24596;48.080;8.362;2023-03-01T05:06:16;37.40;;;19.85;;
38843;SDS011;24596;48.080;8.362;2023-03-01T05:08:42;39.97;;;21.08;;
38843;SDS011;24596;48.080;8.362;2023-03-01T05:11:08;40.33;;;20.33;;
38843;SDS011;24596;48.080;8.362;2023-03-01T05:13:34;39.83;;;21.10;;
38843;SDS011;24596;48.080;8.362;2023-03-01T05:16:00;39.30;;;20.98;;
38843;SDS011;24596;48.080;8.362;2023-03-01T05:18:26;40.67;;;20.67;;
38843;SDS011;24596;48.080;8.362;2023-03-01T05:20:53;43.33;;;21.23;;
38843;SDS011;24596;48.080;8.362;2023-03-01T05:23:21;46.88;;;23.75;;
38843;SDS011;24596;48.080;8.362;2023-03-01T05:25:46;49.00;;;22.17;;
38843;SDS011;24596;48.080;8.362;2023-03-01T05:28:11;41.55;;;20.45;;
38843;SDS011;24596;48.080;8.362;2023-03-01T05:30:37;42.72;;;20.75;;
38843;SDS011;24596;48.080;8.362;2023-03-01T05:33:04;44.20;;;21.85;;
38843;SDS011;24596;48.080;8.362;2023-03-01T05:35:29;40.10;;;19.52;;
38843;SDS011;24596;48.080;8.362;2023-03-01T05:37:57;39.20;;;21.20;;
38843;SDS011;24596;48.080;8.362;2023-03-01T05:40:23;41.85;;;21.90;;
38843;SDS011;24596;48.080;8.362;2023-03-01T05:42:50;47.03;;;21.52;;
38843;SDS011;24596;48.080;8.362;2023-03-01T05:45:15;40.80;;;20.67;;
38843;SDS011;24596;48.080;8.362;2023-03-01T05:47:41;37.78;;;17.92;;
38843;SDS011;24596;48.080;8.362;2023-03-01T05:52:35;34.70;;;19.88;;
38843;SDS011;24596;48.080;8.362;2023-03-01T05:55:00;38.22;;;19.77;;
38843;SDS011;24596;48.080;8.362;2023-03-01T05:57:27;37.25;;;19.38;;
38843;SDS011;24596;48.080;8.362;2023-03-01T05:59:52;39.72;;;21.15;;
38843;SDS011;24596;48.080;8.362;2023-03-01T06:02:18;40.90;;;20.38;;
38843;SDS011;24596;48.080;8.362;2023-03-01T06:04:43;36.92;;;20.10;;
38843;SDS011;24596;48.080;8.362;2023-03-01T06:07:08;36.83;;;19.48;;
38843;SDS011;24596;48.080;8.362;2023-03-01T06:09:33;43.45;;;21.95;;
38843;SDS011;24596;48.080;8.362;2023-03-01T06:11:59;39.08;;;20.48;;
38843;SDS011;24596;48.080;8.362;2023-03-01T06:14:24;39.95;;;20.55;;
38843;SDS011;24596;48.080;8.362;2023-03-01T06:16:50;41.25;;;20.92;;
38843;SDS011;24596;48.080;8.362;2023-03-01T06:19:15;39.60;;;20.20;;
38843;SDS011;24596;48.080;8.362;2023-03-01T06:21:40;41.35;;;21.38;;
38843;SDS011;24596;48.080;8.362;2023-03-01T06:24:05;34.30;;;18.90;;
38843;SDS011;24596;48.080;8.362;2023-03-01T06:26:32;39.28;;;19.98;;
38843;SDS011;24596;48.080;8.362;2023-03-01T06:28:57;37.80;;;19.25;;
38843;SDS011;24596;48.080;8.362;2023-03-01T06:31:22;39.70;;;20.45;;
38843;SDS011;24596;48.080;8.362;2023-03-01T06:33:47;39.45;;;19.83;;
38843;SDS011;24596;48.080;8.362;2023-03-01T06:36:13;43.40;;;20.50;;
38843;SDS011;24596;48.080;8.362;2023-03-01T06:38:38;40.83;;;20.52;;
38843;SDS011;24596;48.080;8.362;2023-03-01T06:41:05;41.42;;;20.08;;
38843;SDS011;24596;48.080;8.362;2023-03-01T06:43:31;38.58;;;19.45;;
38843;SDS011;24596;48.080;8.362;2023-03-01T06:45:56;39.80;;;20.17;;
38843;SDS011;24596;48.080;8.362;2023-03-01T06:48:22;37.85;;;21.00;;
38843;SDS011;24596;48.080;8.362;2023-03-01T06:50:47;43.00;;;21.05;;
38843;SDS011;24596;48.080;8.362;2023-03-01T06:53:12;40.33;;;19.80;;
38843;SDS011;24596;48.080;8.362;2023-03-01T06:55:37;40.38;;;20.65;;
38843;SDS011;24596;48.080;8.362;2023-03-01T06:58:03;41.53;;;20.58;;
38843;SDS011;24596;48.080;8.362;2023-03-01T07:00:28;40.88;;;20.85;;
38843;SDS011;24596;48.080;8.362;2023-03-01T07:02:54;40.45;;;18.80;;
38843;SDS011;24596;48.080;8.362;2023-03-01T07:05:19;42.53;;;19.58;;
38843;SDS011;24596;48.080;8.362;2023-03-01T07:07:44;41.30;;;19.77;;
38843;SDS011;24596;48.080;8.362;2023-03-01T07:10:10;41.78;;;20.75;;
38843;SDS011;24596;48.080;8.362;2023-03-01T07:12:35;46.03;;;22.30;;
38843;SDS011;24596;48.080;8.362;2023-03-01T07:15:01;40.97;;;19.17;;
38843;SDS011;24596;48.080;8.362;2023-03-01T07:17:26;37.67;;;20.38;;
38843;SDS011;24596;48.080;8.362;2023-03-01T07:19:51;38.30;;;21.33;;
38843;SDS011;24596;48.080;8.362;2023-03-01T07:22:16;38.10;;;18.92;;
38843;SDS011;24596;48.080;8.362;2023-03-01T07:24:42;42.42;;;21.20;;
38843;SDS011;24596;48.080;8.362;2023-03-01T07:27:07;34.70;;;19.02;;
38843;SDS011;24596;48.080;8.362;2023-03-01T07:29:32;39.28;;;21.02;;
38843;SDS011;24596;48.080;8.362;2023-03-01T07:31:58;44.47;;;21.35;;
38843;SDS011;24596;48.080;8.362;2023-03-01T07:34:23;39.83;;;20.98;;
38843;SDS011;24596;48.080;8.362;2023-03-01T07:36:48;42.15;;;21.83;;
38843;SDS011;24596;48.080;8.362;2023-03-01T07:39:14;41.83;;;21.23;;
38843;SDS011;24596;48.080;8.362;2023-03-01T07:41:39;43.95;;;22.10;;
38843;SDS011;24596;48.080;8.362;2023-03-01T07:44:04;37.80;;;19.88;;
38843;SDS011;24596;48.080;8.362;2023-03-01T07:46:29;37.20;;;20.35;;
38843;SDS011;24596;48.080;8.362;2023-03-01T07:48:55;43.53;;;21.25;;
38843;SDS011;24596;48.080;8.362;2023-03-01T07:51:20;40.08;;;20.17;;
38843;SDS011;24596;48.080;8.362;2023-03-01T07:53:46;36.03;;;20.05;;
38843;SDS011;24596;48.080;8.362;2023-03-01T07:56:13;40.67;;;21.17;;
38843;SDS011;24596;48.080;8.362;2023-03-01T07:58:39;42.53;;;21.13;;
38843;SDS011;24596;48.080;8.362;2023-03-01T08:01:05;37.92;;;19.48;;
38843;SDS011;24596;48.080;8.362;2023-03-01T08:03:31;41.22;;;21.63;;
38843;SDS011;24596;48.080;8.362;2023-03-01T08:05:58;39.53;;;19.73;;
38843;SDS011;24596;48.080;8.362;2023-03-01T08:08:23;40.92;;;20.42;;
38843;SDS011;24596;48.080;8.362;2023-03-01T08:10:49;41.35;;;21.33;;
38843;SDS011;24596;48.080;8.362;2023-03-01T08:13:14;39.58;;;21.52;;
38843;SDS011;24596;48.080;8.362;2023-03-01T08:15:39;38.92;;;20.40;;
38843;SDS011;24596;48.080;8.362;2023-03-01T08:18:04;37.65;;;19.85;;
38843;SDS011;24596;48.080;8.362;2023-03-01T08:20:31;38.65;;;20.23;;
38843;SDS011;24596;48.080;8.362;2023-03-01T08:22:57;34.38;;;19.10;;
38843;SDS011;24596;48.080;8.362;2023-03-01T08:25:22;37.63;;;20.23;;
38843;SDS011;24596;48.080;8.362;2023-03-01T08:27:47;40.13;;;19.95;;
38843;SDS011;24596;48.080;8.362;2023-03-01T08:30:13;39.70;;;20.58;;
38843;SDS011;24596;48.080;8.362;2023-03-01T08:32:38;40.17;;;20.77;;
38843;SDS011;24596;48.080;8.362;2023-03-01T08:35:04;40.70;;;20.75;;
38843;SDS011;24596;48.080;8.362;2023-03-01T08:37:29;40.17;;;20.88;;
38843;SDS011;24596;48.080;8.362;2023-03-01T08:39:55;41.58;;;20.10;;
38843;SDS011;24596;48.080;8.362;2023-03-01T08:42:21;37.33;;;20.48;;
38843;SDS011;24596;48.080;8.362;2023-03-01T08:44:46;37.67;;;20.08;;
38843;SDS011;24596;48.080;8.362;2023-03-01T08:47:11;38.00;;;20.40;;
38843;SDS011;24596;48.080;8.362;2023-03-01T08:49:36;39.40;;;20.77;;
38843;SDS011;24596;48.080;8.362;2023-03-01T08:52:02;39.40;;;20.45;;
38843;SDS011;24596;48.080;8.362;2023-03-01T08:54:27;36.25;;;18.50;;
38843;SDS011;24596;48.080;8.362;2023-03-01T08:56:52;36.85;;;19.27;;
38843;SDS011;24596;48.080;8.362;2023-03-01T08:59:17;37.78;;;19.58;;
38843;SDS011;24596;48.080;8.362;2023-03-01T09:01:43;36.28;;;20.42;;
38843;SDS011;24596;48.080;8.362;2023-03-01T09:04:08;36.92;;;19.33;;
38843;SDS011;24596;48.080;8.362;2023-03-01T09:06:33;39.38;;;20.92;;
38843;SDS011;24596;48.080;8.362;2023-03-01T09:08:59;36.78;;;19.63;;
38843;SDS011;24596;48.080;8.362;2023-03-01T09:11:24;36.33;;;19.52;;
38843;SDS011;24596;48.080;8.362;2023-03-01T09:13:50;34.70;;;18.00;;
38843;SDS011;24596;48.080;8.362;2023-03-01T09:16:16;36.40;;;19.52;;
38843;SDS011;24596;48.080;8.362;2023-03-01T09:18:42;40.90;;;19.63;;
38843;SDS011;24596;48.080;8.362;2023-03-01T09:21:12;38.67;;;19.70;;
38843;SDS011;24596;48.080;8.362;2023-03-01T09:23:47;36.00;;;19.48;;
38843;SDS011;24596;48.080;8.362;2023-03-01T09:26:19;37.88;;;18.88;;
38843;SDS011;24596;48.080;8.362;2023-03-01T09:28:46;31.98;;;18.55;;
38843;SDS011;24596;48.080;8.362;2023-03-01T09:31:12;37.88;;;19.45;;
38843;SDS011;24596;48.080;8.362;2023-03-01T09:33:38;36.53;;;18.90;;
38843;SDS011;24596;48.080;8.362;2023-03-01T09:36:04;35.63;;;20.65;;
38843;SDS011;24596;48.080;8.362;2023-03-01T09:38:30;39.13;;;21.65;;
38843;SDS011;24596;48.080;8.362;2023-03-01T09:40:55;37.17;;;20.10;;
38843;SDS011;24596;48.080;8.362;2023-03-01T09:43:23;35.47;;;20.15;;
38843;SDS011;24596;48.080;8.362;2023-03-01T09:45:50;35.40;;;19.45;;
38843;SDS011;24596;48.080;8.362;2023-03-01T09:48:18;42.15;;;20.20;;
38843;SDS011;24596;48.080;8.362;2023-03-01T09:50:43;34.60;;;20.60;;
38843;SDS011;24596;48.080;8.362;2023-03-01T09:53:15;38.60;;;20.65;;
38843;SDS011;24596;48.080;8.362;2023-03-01T10:00:50;34.13;;;18.80;;
38843;SDS011;24596;48.080;8.362;2023-03-01T10:03:26;38.80;;;21.40;;
38843;SDS011;24596;48.080;8.362;2023-03-01T10:08:31;36.78;;;19.35;;
38843;SDS011;24596;48.080;8.362;2023-03-01T10:11:01;40.92;;;20.63;;
38843;SDS011;24596;48.080;8.362;2023-03-01T10:15:56;43.67;;;18.67;;
38843;SDS011;24596;48.080;8.362;2023-03-01T10:18:26;39.28;;;19.75;;
38843;SDS011;24596;48.080;8.362;2023-03-01T10:20:53;34.17;;;19.20;;
38843;SDS011;24596;48.080;8.362;2023-03-01T10:23:20;32.90;;;18.98;;
38843;SDS011;24596;48.080;8.362;2023-03-01T10:28:20;33.35;;;18.23;;
38843;SDS011;24596;48.080;8.362;2023-03-01T10:30:49;37.38;;;19.92;;
38843;SDS011;24596;48.080;8.362;2023-03-01T10:35:43;36.45;;;18.95;;
38843;SDS011;24596;48.080;8.362;2023-03-01T10:38:10;37.33;;;19.33;;
38843;SDS011;24596;48.080;8.362;2023-03-01T10:40:36;35.17;;;18.90;;
38843;SDS011;24596;48.080;8.362;2023-03-01T10:43:14;37.60;;;20.00;;
38843;SDS011;24596;48.080;8.362;2023-03-01T10:45:39;35.67;;;19.15;;
38843;SDS011;24596;48.080;8.362;2023-03-01T10:48:26;39.05;;;20.70;;
38843;SDS011;24596;48.080;8.362;2023-03-01T10:58:25;39.13;;;19.70;;
38843;SDS011;24596;48.080;8.362;2023-03-01T11:00:52;31.95;;;19.38;;
38843;SDS011;24596;48.080;8.362;2023-03-01T11:03:21;37.58;;;19.60;;
38843;SDS011;24596;48.080;8.362;2023-03-01T11:05:51;36.33;;;20.02;;
38843;SDS011;24596;48.080;8.362;2023-03-01T11:08:29;34.35;;;19.02;;
38843;SDS011;24596;48.080;8.362;2023-03-01T11:11:03;34.85;;;20.00;;
38843;SDS011;24596;48.080;8.362;2023-03-01T11:13:29;34.70;;;19.58;;
38843;SDS011;24596;48.080;8.362;2023-03-01T11:18:45;41.77;;;19.37;;
38843;SDS011;24596;48.080;8.362;2023-03-01T11:21:20;33.92;;;19.10;;
38843;SDS011;24596;48.080;8.362;2023-03-01T11:23:45;36.50;;;19.42;;
38843;SDS011;24596;48.080;8.362;2023-03-01T11:26:12;36.88;;;19.42;;
38843;SDS011;24596;48.080;8.362;2023-03-01T11:28:38;36.20;;;20.25;;
38843;SDS011;24596;48.080;8.362;2023-03-01T11:31:05;34.90;;;20.38;;
38843;SDS011;24596;48.080;8.362;2023-03-01T11:36:01;41.30;;;22.27;;
38843;SDS011;24596;48.080;8.362;2023-03-01T11:38:28;40.67;;;21.98;;
38843;SDS011;24596;48.080;8.362;2023-03-01T11:45:52;37.95;;;19.10;;
38843;SDS011;24596;48.080;8.362;2023-03-01T11:48:28;35.95;;;19.38;;
38843;SDS011;24596;48.080;8.362;2023-03-01T11:51:00;35.45;;;19.20;;
38843;SDS011;24596;48.080;8.362;2023-03-01T12:06:19;38.10;;;20.27;;
38843;SDS011;24596;48.080;8.362;2023-03-01T12:19:24;31.85;;;19.13;;
38843;SDS011;24596;48.080;8.362;2023-03-01T12:45:44;34.47;;;19.92;;
38843;SDS011;24596;48.080;8.362;2023-03-01T12:50:54;34.60;;;19.35;;
38843;SDS011;24596;48.080;8.362;2023-03-01T12:53:22;32.83;;;18.30;;
38843;SDS011;24596;48.080;8.362;2023-03-01T12:55:48;32.00;;;18.30;;
38843;SDS011;24596;48.080;8.362;2023-03-01T13:08:20;34.75;;;19.58;;
38843;SDS011;24596;48.080;8.362;2023-03-01T13:13:15;29.55;;;16.70;;
38843;SDS011;24596;48.080;8.362;2023-03-01T13:15:43;30.90;;;18.25;;
38843;SDS011;24596;48.080;8.362;2023-03-01T13:18:30;25.45;;;15.73;;
38843;SDS011;24596;48.080;8.362;2023-03-01T13:20:55;27.92;;;14.88;;
38843;SDS011;24596;48.080;8.362;2023-03-01T13:28:51;29.10;;;15.30;;
38843;SDS011;24596;48.080;8.362;2023-03-01T13:33:50;24.60;;;15.05;;
38843;SDS011;24596;48.080;8.362;2023-03-01T13:41:47;24.10;;;14.50;;
38843;SDS011;24596;48.080;8.362;2023-03-01T13:46:51;24.20;;;15.30;;
38843;SDS011;24596;48.080;8.362;2023-03-01T13:49:21;23.73;;;13.77;;
38843;SDS011;24596;48.080;8.362;2023-03-01T13:51:48;25.70;;;14.90;;
38843;SDS011;24596;48.080;8.362;2023-03-01T13:54:14;27.38;;;15.27;;
38843;SDS011;24596;48.080;8.362;2023-03-01T13:56:40;25.05;;;13.88;;
38843;SDS011;24596;48.080;8.362;2023-03-01T13:59:19;23.02;;;15.25;;
38843;SDS011;24596;48.080;8.362;2023-03-01T14:01:51;30.98;;;17.00;;
38843;SDS011;24596;48.080;8.362;2023-03-01T14:04:21;26.02;;;15.50;;
38843;SDS011;24596;48.080;8.362;2023-03-01T14:06:46;24.23;;;15.35;;
38843;SDS011;24596;48.080;8.362;2023-03-01T14:09:16;23.92;;;14.20;;
38843;SDS011;24596;48.080;8.362;2023-03-01T14:16:48;25.67;;;14.32;;
38843;SDS011;24596;48.080;8.362;2023-03-01T14:21:41;26.65;;;14.30;;
38843;SDS011;24596;48.080;8.362;2023-03-01T14:24:13;23.73;;;14.40;;
38843;SDS011;24596;48.080;8.362;2023-03-01T14:26:39;22.30;;;14.27;;
38843;SDS011;24596;48.080;8.362;2023-03-01T14:29:10;22.52;;;13.90;;
38843;SDS011;24596;48.080;8.362;2023-03-01T14:34:19;24.92;;;13.50;;
38843;SDS011;24596;48.080;8.362;2023-03-01T14:36:44;26.23;;;14.52;;
38843;SDS011;24596;48.080;8.362;2023-03-01T14:39:16;25.25;;;14.23;;
38843;SDS011;24596;48.080;8.362;2023-03-01T14:41:42;22.48;;;13.10;;
38843;SDS011;24596;48.080;8.362;2023-03-01T14:44:07;20.25;;;12.88;;
38843;SDS011;24596;48.080;8.362;2023-03-01T14:46:40;22.73;;;14.48;;
38843;SDS011;24596;48.080;8.362;2023-03-01T14:51:35;21.23;;;14.80;;
38843;SDS011;24596;48.080;8.362;2023-03-01T14:54:01;19.60;;;13.05;;
38843;SDS011;24596;48.080;8.362;2023-03-01T14:56:26;24.05;;;13.57;;
38843;SDS011;24596;48.080;8.362;2023-03-01T14:58:52;19.65;;;13.52;;
38843;SDS011;24596;48.080;8.362;2023-03-01T15:01:17;22.50;;;14.10;;
38843;SDS011;24596;48.080;8.362;2023-03-01T15:03:44;22.00;;;13.32;;
38843;SDS011;24596;48.080;8.362;2023-03-01T15:06:17;23.92;;;14.45;;
38843;SDS011;24596;48.080;8.362;2023-03-01T15:08:47;23.65;;;12.25;;
38843;SDS011;24596;48.080;8.362;2023-03-01T15:13:38;22.60;;;14.32;;
38843;SDS011;24596;48.080;8.362;2023-03-01T15:18:34;23.33;;;13.63;;
38843;SDS011;24596;48.080;8.362;2023-03-01T15:21:20;20.23;;;13.32;;
38843;SDS011;24596;48.080;8.362;2023-03-01T15:23:52;24.17;;;14.05;;
38843;SDS011;24596;48.080;8.362;2023-03-01T15:26:21;23.80;;;14.57;;
38843;SDS011;24596;48.080;8.362;2023-03-01T15:28:49;22.35;;;13.63;;
38843;SDS011;24596;48.080;8.362;2023-03-01T15:33:42;23.25;;;14.68;;
38843;SDS011;24596;48.080;8.362;2023-03-01T15:36:32;22.42;;;15.70;;
38843;SDS011;24596;48.080;8.362;2023-03-01T15:38:58;22.65;;;14.73;;
38843;SDS011;24596;48.080;8.362;2023-03-01T15:44:28;25.50;;;15.88;;
38843;SDS011;24596;48.080;8.362;2023-03-01T15:46:53;22.58;;;14.93;;
38843;SDS011;24596;48.080;8.362;2023-03-01T15:51:50;22.65;;;14.95;;
38843;SDS011;24596;48.080;8.362;2023-03-01T15:54:21;22.77;;;15.48;;
38843;SDS011;24596;48.080;8.362;2023-03-01T15:56:46;22.17;;;14.73;;
38843;SDS011;24596;48.080;8.362;2023-03-01T15:59:12;24.67;;;15.35;;
38843;SDS011;24596;48.080;8.362;2023-03-01T16:01:39;24.45;;;16.00;;
38843;SDS011;24596;48.080;8.362;2023-03-01T16:04:04;23.48;;;15.15;;
38843;SDS011;24596;48.080;8.362;2023-03-01T16:06:29;23.55;;;15.52;;
38843;SDS011;24596;48.080;8.362;2023-03-01T16:08:55;25.58;;;15.32;;
38843;SDS011;24596;48.080;8.362;2023-03-01T16:11:20;23.63;;;15.20;;
38843;SDS011;24596;48.080;8.362;2023-03-01T16:13:45;22.98;;;14.73;;
38843;SDS011;24596;48.080;8.362;2023-03-01T16:16:11;25.20;;;15.30;;
38843;SDS011;24596;48.080;8.362;2023-03-01T16:18:39;21.70;;;14.93;;
38843;SDS011;24596;48.080;8.362;2023-03-01T16:21:04;27.52;;;15.00;;
38843;SDS011;24596;48.080;8.362;2023-03-01T16:23:30;23.33;;;15.40;;
38843;SDS011;24596;48.080;8.362;2023-03-01T16:25:58;26.27;;;15.77;;
38843;SDS011;24596;48.080;8.362;2023-03-01T16:28:24;22.77;;;14.30;;
38843;SDS011;24596;48.080;8.362;2023-03-01T16:30:49;22.30;;;14.85;;
38843;SDS011;24596;48.080;8.362;2023-03-01T16:33:15;29.27;;;15.38;;
38843;SDS011;24596;48.080;8.362;2023-03-01T16:35:40;23.23;;;15.13;;
38843;SDS011;24596;48.080;8.362;2023-03-01T16:38:06;24.75;;;15.48;;
38843;SDS011;24596;48.080;8.362;2023-03-01T16:40:31;24.27;;;15.15;;
38843;SDS011;24596;48.080;8.362;2023-03-01T16:42:56;25.60;;;15.55;;
38843;SDS011;24596;48.080;8.362;2023-03-01T16:45:32;24.15;;;13.70;;
38843;SDS011;24596;48.080;8.362;2023-03-01T16:47:58;28.25;;;16.30;;
38843;SDS011;24596;48.080;8.362;2023-03-01T16:50:24;25.40;;;15.00;;
38843;SDS011;24596;48.080;8.362;2023-03-01T16:52:49;26.33;;;15.95;;
38843;SDS011;24596;48.080;8.362;2023-03-01T16:55:14;23.98;;;15.45;;
38843;SDS011;24596;48.080;8.362;2023-03-01T16:57:39;28.70;;;17.33;;